• Join FlightAware (Why Join?)
  • Login
  • US Flag 
06:06PM EDT


 

Airport Tracker/Info


-or-


 

Live Flight TrackerFlight Track Log ✈ N6ZE ✈ 17-Jul-2014 ✈ KRSW - KTMB

Flight Track Log - Related Links

Times and Time Zones

All times are in EDT time to prevent confusion due to time zone crossing. See the N6ZE flight status page for this flight to view local times or setup timezone preferences in your user account.

Time Position Orientation Groundspeed Altitude Reporting Facility
EDT Latitude Longitude Course Direction KTS MPH feet Rate Location/Type
12:01PM 26.4914 -81.7811 142° Southeast 190 219 2,500  Level Miami Center
12:02PM 26.4306 -81.7697 170° South 216 249 5,700 3,000 Climbing Miami Center
12:04PM 26.3689 -81.7364 154° Southeast 233 268 8,800 2,040 Climbing Miami Center
12:05PM 26.3072 -81.6989 151° Southeast 257 296 10,000 600 Climbing Miami Center
12:06PM 26.2197 -81.6544 156° South 319 367 10,100 480 Climbing Miami Center
12:07PM 26.2001 -81.4501 142° Southeast  Level FlightAware Approximate
12:07PM 26.1308 -81.6217 162° South 317 365 11,000  Level Miami Center
12:08PM 26.0450 -81.5900 162° South 326 375 11,000  Level Miami Center
12:10PM 25.8878 -81.4928 151° Southeast 325 374 11,000  Level Miami Center
12:11PM 25.8358 -81.4014 122° Southeast 325 374 11,000  Level Miami Center
12:12PM 25.7861 -81.3119 122° Southeast 333 383 11,000 -480 Level Miami Center
12:13PM 25.7422 -81.2314 121° Southeast 329 379 10,100 -1,200 Descending Miami Center
12:14PM 25.7033 -81.1583 121° Southeast 281 323 8,600 -1,500 Descending Miami Center
12:15PM 25.6619 -81.0814 121° Southeast 289 333 7,000 -1,260 Descending Miami Center
12:16PM 25.6125 -80.9917 121° Southeast 283 326 6,000 -720 Descending Miami Center
12:16PM 25.5903 -80.9631 131° Southeast 261 300 6,000  Level Miami Center
12:17PM 25.5675 -80.9283 126° Southeast 265 305 6,000  Level Miami Center
12:17PM 25.5683 -80.8850 89° East 286 329 6,000  Level Miami Center
12:18PM 25.5853 -80.8486 63° Northeast 275 316 6,000 -120 Level Miami Center
12:18PM 25.5986 -80.8111 68° East 271 312 5,900 -540 Descending Miami Center
12:19PM 25.6033 -80.7697 83° East 269 310 5,500 -900 Descending Miami Center
12:19PM 25.6056 -80.7356 86° East 266 306 5,100 -1,200 Descending Miami Center
12:20PM 25.6075 -80.6786 88° East 258 297 4,300 -1,080 Descending Miami Center
12:20PM 25.6072 -80.6500 91° East 243 280 3,900 -1,020 Descending Miami Center
12:21PM 25.6097 -80.6067 86° East 241 277 3,300 -900 Descending Miami Center
12:21PM 25.6111 -80.5881 85° East 216 249 3,100 -1,020 Descending Miami Center
12:22PM 25.6158 -80.5400 84° East 209 241 2,300 -1,020 Descending Miami Center
12:22PM 25.6156 -80.5214 91° East 182 209 2,000 -420 Descending Miami Center
12:23PM 25.6175 -80.4858 87° East 185 213 1,900 -240 Descending Miami Center
12:24PM 25.6197 -80.4308 87° East 171 197 1,600 -360 Descending Miami Center
12:24PM 25.6197 -80.4222 90° East 162 186 1,500 -900 Descending Miami Center
12:25PM 25.6358 -80.3958 56° Northeast 149 171 700 -1,020 Descending Miami Center
12:25PM 25.6422 -80.3986 339° North 139 160 500 -600 Descending Miami Center
12:26PM 25.6436 -80.4322 273° West 129 148 100 -480 Descending Miami Center
12:28PM 25.6476 -80.4332 200° South  Level Estimated